createdAt,value
2019-06-01T00:00:16.741Z,13.10
2019-06-01T00:02:52.588Z,13.10
2019-06-01T00:05:17.602Z,13.00
2019-06-01T00:07:47.096Z,13.00
2019-06-01T00:10:17.979Z,13.00
2019-06-01T00:12:47.647Z,13.00
2019-06-01T00:15:16.905Z,13.00
2019-06-01T00:17:46.021Z,13.00
2019-06-01T00:20:15.546Z,12.90
2019-06-01T00:22:45.518Z,12.90
2019-06-01T00:25:14.103Z,12.80
2019-06-01T00:27:42.720Z,12.80
2019-06-01T00:30:26.149Z,12.70
2019-06-01T00:32:43.305Z,12.70
2019-06-01T00:35:11.640Z,12.70
2019-06-01T00:37:41.306Z,12.60
2019-06-01T00:40:09.857Z,12.60
2019-06-01T00:42:38.525Z,12.60
2019-06-01T00:45:07.361Z,12.50
2019-06-01T00:47:37.098Z,12.50
2019-06-01T00:50:06.084Z,12.50
2019-06-01T00:52:34.817Z,12.50
2019-06-01T00:55:03.653Z,12.50
2019-06-01T00:57:32.874Z,12.40
2019-06-01T01:00:01.645Z,12.40
2019-06-01T01:02:34.266Z,12.40
2019-06-01T01:05:15.992Z,12.40
2019-06-01T01:07:44.645Z,12.30
2019-06-01T01:10:14.246Z,12.30
2019-06-01T01:13:03.003Z,12.30
2019-06-01T01:15:31.621Z,12.30
2019-06-01T01:18:00.221Z,12.30
2019-06-01T01:20:28.655Z,12.30
2019-06-01T01:22:56.793Z,12.30
2019-06-01T01:25:25.231Z,12.20
2019-06-01T01:27:54.869Z,12.20
2019-06-01T01:30:24.872Z,12.30
2019-06-01T01:32:53.602Z,12.20
2019-06-01T01:35:23.481Z,12.20
2019-06-01T01:38:00.475Z,12.10
2019-06-01T01:40:47.990Z,12.10
2019-06-01T01:43:16.439Z,12.00
2019-06-01T01:45:48.570Z,12.00
2019-06-01T01:48:17.454Z,12.00
2019-06-01T01:50:46.755Z,11.90
2019-06-01T01:53:15.287Z,11.90
2019-06-01T01:55:43.395Z,11.80
2019-06-01T01:58:11.691Z,11.80
2019-06-01T02:00:44.966Z,11.90
2019-06-01T02:03:13.605Z,11.80
2019-06-01T02:05:43.260Z,11.80
2019-06-01T02:08:13.010Z,11.80
2019-06-01T02:10:41.666Z,11.80
2019-06-01T02:13:10.474Z,11.80
2019-06-01T02:15:39.986Z,11.80
2019-06-01T02:18:08.705Z,11.80
2019-06-01T02:20:37.317Z,11.80
2019-06-01T02:23:05.897Z,11.80
2019-06-01T02:25:34.407Z,11.70
2019-06-01T02:28:03.397Z,11.70
2019-06-01T02:30:31.713Z,11.60
2019-06-01T02:33:00.202Z,11.60
2019-06-01T02:35:28.695Z,11.50
2019-06-01T02:37:58.639Z,11.50
2019-06-01T02:40:27.720Z,11.50
2019-06-01T02:42:57.256Z,11.60
2019-06-01T02:45:27.725Z,11.60
2019-06-01T02:47:57.463Z,11.60
2019-06-01T02:50:26.433Z,11.60
2019-06-01T02:52:55.545Z,11.60
2019-06-01T02:55:24.164Z,11.50
2019-06-01T02:57:52.548Z,11.50
2019-06-01T03:01:20.671Z,11.50
2019-06-01T03:03:50.884Z,11.50
2019-06-01T03:06:19.748Z,11.50
2019-06-01T03:08:50.129Z,11.50
2019-06-01T03:11:22.337Z,11.60
2019-06-01T03:13:54.568Z,11.60
2019-06-01T03:16:27.978Z,11.40
2019-06-01T03:19:00.030Z,11.30
2019-06-01T03:21:30.708Z,11.30
2019-06-01T03:24:08.338Z,11.30
2019-06-01T03:26:42.218Z,11.30
2019-06-01T03:29:15.963Z,11.30
2019-06-01T03:31:44.563Z,11.30
2019-06-01T03:34:13.981Z,11.30
2019-06-01T03:36:42.875Z,11.20
2019-06-01T03:39:12.910Z,11.20
2019-06-01T03:41:41.721Z,11.30
2019-06-01T03:44:10.858Z,11.30
2019-06-01T03:46:39.045Z,11.20
2019-06-01T03:49:07.697Z,11.20
2019-06-01T03:51:36.022Z,11.30
2019-06-01T03:54:05.106Z,11.20
2019-06-01T03:56:34.742Z,11.30
2019-06-01T03:59:03.236Z,11.30
2019-06-01T04:01:32.546Z,11.30
2019-06-01T04:04:00.978Z,11.30
2019-06-01T04:06:32.222Z,11.40
2019-06-01T04:09:01.570Z,11.40
2019-06-01T04:11:33.431Z,11.50
2019-06-01T04:14:01.634Z,11.50
2019-06-01T04:16:29.883Z,11.70
2019-06-01T04:18:58.027Z,11.90
2019-06-01T04:21:26.467Z,12.10
2019-06-01T04:23:54.551Z,12.40
2019-06-01T04:26:22.765Z,12.80
2019-06-01T04:28:51.100Z,13.70
2019-06-01T04:31:20.496Z,14.50
2019-06-01T04:33:48.739Z,15.20
2019-06-01T04:36:18.699Z,15.60
2019-06-01T04:38:47.930Z,17.30
2019-06-01T04:41:17.545Z,16.90
2019-06-01T04:43:46.382Z,17.50
2019-06-01T04:46:14.766Z,18.10
2019-06-01T04:48:43.655Z,18.60
2019-06-01T04:51:13.499Z,19.10
2019-06-01T04:53:42.581Z,19.00
2019-06-01T04:56:12.965Z,18.80
2019-06-01T04:58:42.135Z,19.10
2019-06-01T05:01:10.938Z,18.80
2019-06-01T05:03:39.310Z,18.70
2019-06-01T05:06:07.416Z,18.80
2019-06-01T05:08:35.988Z,18.90
2019-06-01T05:11:06.851Z,18.70
2019-06-01T05:13:37.409Z,19.00
2019-06-01T05:16:07.833Z,19.20
2019-06-01T05:18:37.439Z,19.30
2019-06-01T05:21:06.441Z,19.90
2019-06-01T05:23:34.830Z,19.90
2019-06-01T05:26:03.205Z,20.20
2019-06-01T05:28:32.641Z,20.30
2019-06-01T05:31:00.884Z,19.90
2019-06-01T05:33:37.421Z,19.80
2019-06-01T05:36:01.689Z,19.80
2019-06-01T05:38:29.890Z,19.80
2019-06-01T05:40:58.091Z,20.00
2019-06-01T05:43:26.882Z,20.10
2019-06-01T05:45:55.755Z,20.60
2019-06-01T05:48:28.444Z,20.40
2019-06-01T05:50:54.234Z,20.60
2019-06-01T05:53:23.101Z,20.60
2019-06-01T05:55:51.600Z,20.80
2019-06-01T05:58:21.757Z,21.40
2019-06-01T06:00:50.354Z,21.80
2019-06-01T06:03:21.981Z,22.10
2019-06-01T06:05:49.044Z,21.90
2019-06-01T06:08:17.993Z,21.90
2019-06-01T06:10:46.791Z,22.70
2019-06-01T06:13:17.432Z,23.10
2019-06-01T06:15:46.528Z,22.80
2019-06-01T06:18:15.791Z,22.90
2019-06-01T06:20:44.632Z,22.80
2019-06-01T06:23:14.251Z,22.80
2019-06-01T06:25:43.908Z,24.60
2019-06-01T06:28:14.612Z,24.70
2019-06-01T06:30:43.097Z,25.30
2019-06-01T06:33:13.102Z,25.00
2019-06-01T06:35:41.905Z,23.80
2019-06-01T06:38:10.578Z,26.20
2019-06-01T06:40:38.866Z,26.70
2019-06-01T06:43:18.989Z,26.60
2019-06-01T06:45:37.748Z,26.60
2019-06-01T06:48:06.103Z,26.60
2019-06-01T06:50:34.421Z,27.20
2019-06-01T06:53:02.660Z,27.80
2019-06-01T06:55:32.882Z,28.50
2019-06-01T06:58:01.311Z,28.40
2019-06-01T07:00:29.816Z,28.50
2019-06-01T07:02:59.367Z,28.70
2019-06-01T07:05:31.336Z,28.30
2019-06-01T07:07:58.709Z,27.60
2019-06-01T07:10:28.350Z,27.60
2019-06-01T07:12:56.633Z,27.80
2019-06-01T07:15:27.649Z,28.20
2019-06-01T07:17:55.924Z,28.90
2019-06-01T07:20:24.196Z,28.90
2019-06-01T07:22:52.472Z,29.20
2019-06-01T07:25:21.795Z,29.40
2019-06-01T07:27:50.126Z,30.30
2019-06-01T07:30:18.394Z,30.70
2019-06-01T07:32:46.591Z,30.60
2019-06-01T07:35:14.908Z,31.00
2019-06-01T07:37:43.245Z,30.40
2019-06-01T07:40:13.697Z,29.20
2019-06-01T07:42:41.918Z,29.40
2019-06-01T07:45:11.402Z,29.90
2019-06-01T07:47:40.160Z,30.10
2019-06-01T07:50:10.081Z,29.80
2019-06-01T07:52:38.602Z,30.00
2019-06-01T07:55:07.115Z,30.20
2019-06-01T07:57:36.220Z,30.50
2019-06-01T08:00:05.227Z,31.30
2019-06-01T08:02:34.772Z,30.70
2019-06-01T08:05:03.946Z,31.00
2019-06-01T08:07:32.946Z,30.20
2019-06-01T08:10:01.861Z,31.10
2019-06-01T08:12:31.628Z,31.10
2019-06-01T08:15:00.446Z,30.60
2019-06-01T08:17:32.171Z,31.40
2019-06-01T08:20:01.233Z,31.50
2019-06-01T08:22:30.089Z,31.50
2019-06-01T08:27:28.482Z,31.90
2019-06-01T08:37:27.220Z,32.10
2019-06-01T08:39:59.005Z,32.50
2019-06-01T08:49:52.387Z,33.90
2019-06-01T08:52:20.627Z,33.50
2019-06-01T08:57:17.291Z,34.10
2019-06-01T09:02:14.472Z,33.10
2019-06-01T09:12:39.074Z,33.20
2019-06-01T09:15:09.352Z,33.20
2019-06-01T09:20:06.684Z,32.80
2019-06-01T09:30:06.234Z,32.70
2019-06-01T09:35:05.990Z,33.00
2019-06-01T09:40:04.554Z,32.90
2019-06-01T09:47:33.863Z,33.90
2019-06-01T09:55:00.192Z,35.20
2019-06-01T09:57:29.832Z,34.80
2019-06-01T10:04:57.684Z,33.50
2019-06-01T10:09:55.074Z,33.40
2019-06-01T10:12:23.421Z,33.80
2019-06-01T10:17:20.325Z,34.00
2019-06-01T10:32:13.861Z,32.50
2019-06-01T10:34:42.282Z,33.00
2019-06-01T10:39:39.506Z,31.90
2019-06-01T10:44:43.463Z,32.40
2019-06-01T10:47:08.248Z,33.20
2019-06-01T10:54:34.352Z,32.00
2019-06-01T10:57:02.888Z,31.90
2019-06-01T10:59:32.201Z,31.90
2019-06-01T11:02:00.604Z,31.80
2019-06-01T11:14:23.009Z,31.70
2019-06-01T11:26:50.085Z,29.40
2019-06-01T11:46:41.119Z,28.50
2019-06-01T11:59:05.655Z,29.00
2019-06-01T12:01:35.621Z,28.00
2019-06-01T12:06:32.737Z,28.30
2019-06-01T12:09:01.339Z,28.60
2019-06-01T12:16:28.868Z,28.50
2019-06-01T12:26:25.282Z,27.80
2019-06-01T12:31:22.250Z,27.70
2019-06-01T12:36:20.088Z,28.10
2019-06-01T12:41:22.483Z,28.00
2019-06-01T12:44:09.641Z,27.70
2019-06-01T12:54:06.769Z,28.10
2019-06-01T12:56:35.308Z,27.90
2019-06-01T12:59:04.324Z,27.60
2019-06-01T13:01:33.599Z,27.30
2019-06-01T13:09:00.769Z,27.40
2019-06-01T13:13:57.897Z,27.80
2019-06-01T13:21:27.625Z,27.50
2019-06-01T13:23:55.778Z,27.60
2019-06-01T13:36:20.734Z,27.80
2019-06-01T13:48:45.502Z,27.80
2019-06-01T13:51:14.343Z,27.70
2019-06-01T13:53:44.041Z,27.60
2019-06-01T13:56:13.009Z,27.50
2019-06-01T13:58:41.620Z,26.20
2019-06-01T14:01:09.955Z,27.60
2019-06-01T14:08:35.824Z,27.50
2019-06-01T14:16:02.001Z,27.60
2019-06-01T14:18:32.654Z,27.40
2019-06-01T14:21:01.073Z,27.50
2019-06-01T14:28:27.264Z,27.60
2019-06-01T14:30:56.451Z,27.70
2019-06-01T14:33:25.610Z,27.60
2019-06-01T14:38:23.164Z,27.50
2019-06-01T14:48:20.542Z,27.80
2019-06-01T14:53:19.984Z,27.70
2019-06-01T15:30:41.354Z,27.40
2019-06-01T15:33:09.762Z,27.40
2019-06-01T15:45:41.803Z,27.60
2019-06-01T15:55:41.045Z,27.60
2019-06-01T16:00:40.571Z,27.30
2019-06-01T16:03:09.163Z,27.20
2019-06-01T16:05:37.478Z,27.30
2019-06-01T16:40:23.001Z,26.80
2019-06-01T16:50:17.070Z,27.10
2019-06-01T16:52:45.597Z,27.10
2019-06-01T16:55:13.822Z,27.00
2019-06-01T16:57:43.840Z,26.90
2019-06-01T17:00:15.269Z,26.80
2019-06-01T17:02:43.719Z,26.60
2019-06-01T17:10:25.588Z,26.90
2019-06-01T17:23:25.904Z,26.60
2019-06-01T17:25:40.470Z,26.50
2019-06-01T17:28:10.262Z,26.30
2019-06-01T17:35:37.201Z,26.10
2019-06-01T17:38:07.074Z,26.20
2019-06-01T17:40:38.527Z,25.70
2019-06-01T17:48:18.127Z,26.10
2019-06-01T17:50:36.889Z,25.70
2019-06-01T17:58:07.805Z,25.80
2019-06-01T18:05:36.910Z,25.50
2019-06-01T18:10:35.578Z,25.40
